Time,TemperatureF,DewpointF,PressureIn,WindDirection,WindDirectionDegrees,WindSpeedMPH,WindSpeedGustMPH,Humidity,HourlyPrecipIn,Conditions,Clouds,dailyrainin,SoftwareType,DateUTC
2013-01-27 00:08:00,27.9,27.0,30.50,West,279,0.0,0.0,97,0.00,,,0.00,weatherlink.com 1.10,2013-01-27 05:08:00,
2013-01-27 00:23:00,27.8,27.0,30.50,WNW,284,0.0,0.0,97,0.00,,,0.00,weatherlink.com 1.10,2013-01-27 05:23:00,
2013-01-27 00:38:00,27.5,27.0,30.52,WNW,284,0.0,0.0,97,0.00,,,0.00,weatherlink.com 1.10,2013-01-27 05:38:00,
2013-01-27 00:53:00,27.2,27.0,30.52,WNW,286,0.0,0.0,97,0.00,,,0.00,weatherlink.com 1.10,2013-01-27 05:53:00,
2013-01-27 01:08:00,27.1,26.0,30.52,WNW,286,0.0,0.0,97,0.00,,,0.00,weatherlink.com 1.10,2013-01-27 06:08:00,
2013-01-27 01:23:00,27.0,26.0,30.52,WNW,286,0.0,0.0,97,0.00,,,0.00,weatherlink.com 1.10,2013-01-27 06:23:00,
2013-01-27 01:38:00,26.9,26.0,30.52,NW,309,0.0,0.0,97,0.00,,,0.00,weatherlink.com 1.10,2013-01-27 06:38:00,
2013-01-27 01:53:00,26.8,26.0,30.53,NW,310,0.0,0.0,97,0.00,,,0.00,weatherlink.com 1.10,2013-01-27 06:53:00,
2013-01-27 02:08:00,26.8,26.0,30.53,NW,310,0.0,0.0,97,0.00,,,0.00,weatherlink.com 1.10,2013-01-27 07:08:00,
2013-01-27 02:23:00,26.7,26.0,30.54,NW,310,0.0,0.0,97,0.00,,,0.00,weatherlink.com 1.10,2013-01-27 07:23:00,
2013-01-27 02:39:00,26.7,26.0,30.55,WNW,284,0.0,0.0,97,0.00,,,0.00,weatherlink.com 1.10,2013-01-27 07:39:00,
2013-01-27 02:53:00,26.6,26.0,30.55,WNW,284,0.0,0.0,97,0.00,,,0.00,weatherlink.com 1.10,2013-01-27 07:53:00,
2013-01-27 03:08:00,26.5,26.0,30.55,WNW,284,0.0,0.0,97,0.00,,,0.00,weatherlink.com 1.10,2013-01-27 08:08:00,
2013-01-27 03:23:00,26.3,26.0,30.54,WNW,284,0.0,0.0,97,0.00,,,0.00,weatherlink.com 1.10,2013-01-27 08:23:00,
2013-01-27 03:38:00,25.9,25.0,30.54,WSW,252,0.0,0.0,97,0.00,,,0.00,weatherlink.com 1.10,2013-01-27 08:38:00,
2013-01-27 03:53:00,25.4,25.0,30.55,WSW,246,0.0,0.0,96,0.00,,,0.00,weatherlink.com 1.10,2013-01-27 08:53:00,
2013-01-27 04:08:00,25.0,24.0,30.55,WSW,246,0.0,0.0,96,0.00,,,0.00,weatherlink.com 1.10,2013-01-27 09:08:00,
2013-01-27 04:24:00,24.7,24.0,30.55,WSW,246,0.0,0.0,96,0.00,,,0.00,weatherlink.com 1.10,2013-01-27 09:24:00,
2013-01-27 04:38:00,24.3,23.0,30.56,WSW,246,0.0,0.0,96,0.00,,,0.00,weatherlink.com 1.10,2013-01-27 09:38:00,
2013-01-27 04:54:00,24.0,23.0,30.56,WSW,246,0.0,0.0,96,0.00,,,0.00,weatherlink.com 1.10,2013-01-27 09:54:00,
2013-01-27 05:09:00,23.7,23.0,30.56,WSW,246,0.0,0.0,96,0.00,,,0.00,weatherlink.com 1.10,2013-01-27 10:09:00,
2013-01-27 05:24:00,23.4,23.0,30.56,WSW,246,0.0,0.0,96,0.00,,,0.00,weatherlink.com 1.10,2013-01-27 10:24:00,
2013-01-27 05:39:00,23.3,22.0,30.57,WSW,246,0.0,0.0,96,0.00,,,0.00,weatherlink.com 1.10,2013-01-27 10:39:00,
2013-01-27 05:54:00,23.2,22.0,30.57,WSW,246,0.0,0.0,96,0.00,,,0.00,weatherlink.com 1.10,2013-01-27 10:54:00,
2013-01-27 06:09:00,23.0,22.0,30.58,WSW,246,0.0,0.0,96,0.00,,,0.00,weatherlink.com 1.10,2013-01-27 11:09:00,
2013-01-27 06:24:00,22.9,22.0,30.59,WSW,246,0.0,0.0,96,0.00,,,0.00,weatherlink.com 1.10,2013-01-27 11:24:00,
2013-01-27 06:39:00,22.7,22.0,30.59,WSW,246,0.0,0.0,96,0.00,,,0.00,weatherlink.com 1.10,2013-01-27 11:39:00,
2013-01-27 06:54:00,22.6,22.0,30.59,WSW,246,0.0,0.0,96,0.00,,,0.00,weatherlink.com 1.10,2013-01-27 11:54:00,
2013-01-27 07:09:00,22.4,21.0,30.60,WSW,246,0.0,0.0,95,0.00,,,0.00,weatherlink.com 1.10,2013-01-27 12:09:00,
2013-01-27 07:24:00,22.2,21.0,30.61,WSW,246,0.0,0.0,95,0.00,,,0.00,weatherlink.com 1.10,2013-01-27 12:24:00,
2013-01-27 07:39:00,22.2,21.0,30.63,WSW,246,0.0,0.0,96,0.00,,,0.00,weatherlink.com 1.10,2013-01-27 12:39:00,
2013-01-27 07:54:00,22.4,22.0,30.64,NW,319,0.0,2.0,97,0.00,,,0.00,weatherlink.com 1.10,2013-01-27 12:54:00,
2013-01-27 08:09:00,23.5,23.0,30.64,NNE,16,0.0,0.0,98,0.00,,,0.00,weatherlink.com 1.10,2013-01-27 13:09:00,
2013-01-27 08:24:00,24.6,24.0,30.65,NE,36,1.0,2.0,98,0.00,,,0.00,weatherlink.com 1.10,2013-01-27 13:24:00,
2013-01-27 08:39:00,25.7,25.0,30.66,NE,34,0.0,3.0,98,0.00,,,0.00,weatherlink.com 1.10,2013-01-27 13:39:00,
2013-01-27 08:54:00,26.5,26.0,30.67,NE,35,1.0,3.0,98,0.00,,,0.00,weatherlink.com 1.10,2013-01-27 13:54:00,
2013-01-27 09:09:00,27.2,27.0,30.67,NNE,24,0.0,3.0,98,0.00,,,0.00,weatherlink.com 1.10,2013-01-27 14:09:00,
2013-01-27 09:24:00,28.0,27.0,30.67,NNE,32,0.0,3.0,97,0.00,,,0.00,weatherlink.com 1.10,2013-01-27 14:24:00,
2013-01-27 09:39:00,28.9,28.0,30.68,NNE,26,3.0,4.0,96,0.00,,,0.00,weatherlink.com 1.10,2013-01-27 14:39:00,
2013-01-27 09:54:00,29.8,29.0,30.69,NE,48,1.0,3.0,96,0.00,,,0.00,weatherlink.com 1.10,2013-01-27 14:54:00,
2013-01-27 10:09:00,30.3,29.0,30.70,NNE,14,0.0,4.0,95,0.00,,,0.00,weatherlink.com 1.10,2013-01-27 15:09:00,
2013-01-27 10:25:00,30.9,29.0,30.70,NNE,33,0.0,4.0,93,0.00,,,0.00,weatherlink.com 1.10,2013-01-27 15:25:00,
2013-01-27 10:39:00,31.5,29.0,30.70,SSE,148,0.0,3.0,91,0.00,,,0.00,weatherlink.com 1.10,2013-01-27 15:39:00,
2013-01-27 10:54:00,32.1,28.0,30.70,NE,53,4.0,6.0,86,0.00,,,0.00,weatherlink.com 1.10,2013-01-27 15:54:00,
2013-01-27 11:10:00,34.3,28.0,30.69,North,360,3.0,5.0,78,0.00,,,0.00,weatherlink.com 1.10,2013-01-27 16:10:00,
2013-01-27 11:25:00,34.8,27.0,30.69,NE,51,3.0,7.0,72,0.00,,,0.00,weatherlink.com 1.10,2013-01-27 16:25:00,
2013-01-27 11:40:00,37.2,27.0,30.68,NNE,26,5.0,7.0,66,0.00,,,0.00,weatherlink.com 1.10,2013-01-27 16:40:00,
2013-01-27 11:55:00,39.7,27.0,30.68,NE,41,5.0,5.0,61,0.01,,,0.01,weatherlink.com 1.10,2013-01-27 16:55:00,
2013-01-27 12:10:00,40.9,27.0,30.67,NE,40,2.0,6.0,58,0.01,,,0.01,weatherlink.com 1.10,2013-01-27 17:10:00,
2013-01-27 12:25:00,42.0,27.0,30.67,NE,52,3.0,5.0,55,0.02,,,0.02,weatherlink.com 1.10,2013-01-27 17:25:00,
2013-01-27 12:40:00,42.3,26.0,30.66,NNE,26,5.0,6.0,52,0.01,,,0.02,weatherlink.com 1.10,2013-01-27 17:40:00,
2013-01-27 12:55:00,43.8,29.0,30.64,SSW,207,0.0,2.0,56,0.01,,,0.02,weatherlink.com 1.10,2013-01-27 17:55:00,
2013-01-27 13:10:00,44.2,27.0,30.64,NNE,31,0.0,4.0,52,0.01,,,0.02,weatherlink.com 1.10,2013-01-27 18:10:00,
2013-01-27 13:25:00,44.1,27.0,30.63,SW,232,2.0,6.0,52,0.01,,,0.03,weatherlink.com 1.10,2013-01-27 18:25:00,
2013-01-27 13:40:00,44.6,27.0,30.62,North,10,3.0,3.0,51,0.01,,,0.03,weatherlink.com 1.10,2013-01-27 18:40:00,
2013-01-27 13:55:00,44.4,27.0,30.62,SSW,204,0.0,3.0,50,0.01,,,0.03,weatherlink.com 1.10,2013-01-27 18:55:00,
2013-01-27 14:10:00,43.8,27.0,30.63,NE,51,0.0,5.0,53,0.00,,,0.03,weatherlink.com 1.10,2013-01-27 19:10:00,
2013-01-27 14:25:00,44.7,28.0,30.63,NNE,25,0.0,3.0,52,0.00,,,0.03,weatherlink.com 1.10,2013-01-27 19:25:00,
2013-01-27 14:40:00,45.2,28.0,30.62,SSE,155,1.0,4.0,51,0.00,,,0.03,weatherlink.com 1.10,2013-01-27 19:40:00,
2013-01-27 14:55:00,44.3,28.0,30.62,ESE,121,1.0,3.0,53,0.00,,,0.03,weatherlink.com 1.10,2013-01-27 19:55:00,
2013-01-27 15:10:00,44.4,29.0,30.61,SW,225,0.0,4.0,54,0.00,,,0.03,weatherlink.com 1.10,2013-01-27 20:10:00,
2013-01-27 15:26:00,43.8,27.0,30.62,NNE,13,1.0,4.0,52,0.00,,,0.03,weatherlink.com 1.10,2013-01-27 20:26:00,
2013-01-27 15:40:00,43.0,27.0,30.62,SSE,168,0.0,2.0,54,0.00,,,0.03,weatherlink.com 1.10,2013-01-27 20:40:00,
2013-01-27 15:55:00,42.7,28.0,30.62,NE,38,0.0,2.0,56,0.00,,,0.03,weatherlink.com 1.10,2013-01-27 20:55:00,
2013-01-27 16:10:00,42.4,28.0,30.61,South,188,0.0,2.0,56,0.00,,,0.03,weatherlink.com 1.10,2013-01-27 21:10:00,
2013-01-27 16:25:00,41.8,29.0,30.61,South,188,0.0,0.0,60,0.00,,,0.03,weatherlink.com 1.10,2013-01-27 21:25:00,
2013-01-27 16:40:00,41.1,28.0,30.61,South,188,0.0,0.0,59,0.00,,,0.03,weatherlink.com 1.10,2013-01-27 21:40:00,
2013-01-27 16:55:00,40.5,29.0,30.62,South,188,0.0,0.0,64,0.00,,,0.03,weatherlink.com 1.10,2013-01-27 21:55:00,
2013-01-27 17:10:00,39.8,28.0,30.63,South,188,0.0,0.0,64,0.00,,,0.03,weatherlink.com 1.10,2013-01-27 22:10:00,
2013-01-27 17:25:00,39.2,28.0,30.63,South,188,0.0,0.0,64,0.00,,,0.03,weatherlink.com 1.10,2013-01-27 22:25:00,
2013-01-27 17:40:00,38.5,28.0,30.64,South,188,0.0,0.0,65,0.00,,,0.03,weatherlink.com 1.10,2013-01-27 22:40:00,
2013-01-27 17:55:00,37.9,28.0,30.64,South,188,0.0,0.0,67,0.00,,,0.03,weatherlink.com 1.10,2013-01-27 22:55:00,
2013-01-27 18:10:00,37.1,28.0,30.63,South,188,0.0,0.0,69,0.00,,,0.03,weatherlink.com 1.10,2013-01-27 23:10:00,
2013-01-27 18:25:00,36.4,27.0,30.62,South,188,0.0,0.0,70,0.00,,,0.03,weatherlink.com 1.10,2013-01-27 23:25:00,
2013-01-27 18:40:00,35.8,28.0,30.63,South,188,0.0,0.0,72,0.00,,,0.03,weatherlink.com 1.10,2013-01-27 23:40:00,
2013-01-27 18:56:00,35.0,28.0,30.64,South,188,0.0,0.0,75,0.00,,,0.03,weatherlink.com 1.10,2013-01-27 23:56:00,
2013-01-27 19:10:00,34.2,28.0,30.64,South,188,0.0,0.0,78,0.00,,,0.03,weatherlink.com 1.10,2013-01-28 00:10:00,
2013-01-27 19:25:00,33.8,29.0,30.64,South,188,0.0,0.0,81,0.00,,,0.03,weatherlink.com 1.10,2013-01-28 00:25:00,
2013-01-27 19:40:00,33.6,29.0,30.64,South,188,0.0,0.0,82,0.00,,,0.03,weatherlink.com 1.10,2013-01-28 00:40:00,
2013-01-27 19:55:00,33.4,29.0,30.63,South,188,0.0,0.0,82,0.00,,,0.03,weatherlink.com 1.10,2013-01-28 00:55:00,
2013-01-27 20:11:00,33.0,28.0,30.62,South,188,0.0,0.0,82,0.00,,,0.03,weatherlink.com 1.10,2013-01-28 01:11:00,
2013-01-27 20:25:00,32.6,28.0,30.62,South,188,0.0,0.0,84,0.00,,,0.03,weatherlink.com 1.10,2013-01-28 01:25:00,
2013-01-27 20:40:00,32.4,29.0,30.62,South,188,0.0,0.0,86,0.00,,,0.03,weatherlink.com 1.10,2013-01-28 01:40:00,
2013-01-27 20:55:00,32.3,29.0,30.63,South,188,0.0,0.0,86,0.00,,,0.03,weatherlink.com 1.10,2013-01-28 01:55:00,
2013-01-27 21:10:00,32.2,28.0,30.63,South,188,0.0,0.0,85,0.00,,,0.03,weatherlink.com 1.10,2013-01-28 02:10:00,
2013-01-27 21:26:00,32.1,28.0,30.63,South,188,0.0,0.0,84,0.00,,,0.03,weatherlink.com 1.10,2013-01-28 02:26:00,
2013-01-27 21:40:00,31.8,28.0,30.63,South,188,0.0,0.0,85,0.00,,,0.03,weatherlink.com 1.10,2013-01-28 02:40:00,
2013-01-27 21:55:00,31.3,28.0,30.63,South,188,0.0,0.0,87,0.00,,,0.03,weatherlink.com 1.10,2013-01-28 02:55:00,
2013-01-27 22:11:00,30.9,28.0,30.62,South,188,0.0,0.0,88,0.00,,,0.03,weatherlink.com 1.10,2013-01-28 03:11:00,
2013-01-27 22:25:00,30.9,28.0,30.62,South,188,0.0,0.0,90,0.00,,,0.03,weatherlink.com 1.10,2013-01-28 03:25:00,
2013-01-27 22:40:00,31.1,29.0,30.61,South,188,0.0,0.0,90,0.00,,,0.03,weatherlink.com 1.10,2013-01-28 03:40:00,
2013-01-27 22:56:00,31.4,29.0,30.61,South,188,0.0,0.0,90,0.00,,,0.03,weatherlink.com 1.10,2013-01-28 03:56:00,
2013-01-27 23:11:00,31.6,29.0,30.60,South,188,0.0,0.0,89,0.00,,,0.03,weatherlink.com 1.10,2013-01-28 04:11:00,
2013-01-27 23:25:00,31.9,30.0,30.61,South,188,0.0,0.0,91,0.00,,,0.03,weatherlink.com 1.10,2013-01-28 04:25:00,
2013-01-27 23:40:00,32.0,29.0,30.60,South,188,0.0,0.0,89,0.00,,,0.03,weatherlink.com 1.10,2013-01-28 04:40:00,
2013-01-27 23:55:00,32.2,30.0,30.60,South,188,0.0,0.0,91,0.00,,,0.03,weatherlink.com 1.10,2013-01-28 04:55:00,